Terminal Aerodrome Forecast
Issued by NWS

Home | Current Version | Previous Version | Text Only | Print | Product List | Glossary On
Versions: 1 2 3 4 5 6 7 8 9 10 11 12 13 14 15
960
FTUS46 KHNX 212320
TAFMER
TAF
KMER 212320Z 2200/2224 26008KT P6SM VCSH FEW035 SCT045 BKN080
     FM220300 33009KT P6SM BKN035
     FM220800 VRB04KT P6SM SCT035
     FM221800 32011KT P6SM SKC=

USA.gov is the U.S. government's official web portal to all federal, state and local government web resources and services.